Columbia, SC

12:21 AM EDT on September 23, 2014 (GMT -0400)
Columbia Owens Downtown | Change Station
CLOSE
Current Station
Airport
Location: Columbia Owens,
Elevation: 213 ft
Nearby Weather Stations

Elev 213 ft 33.97 °N, 80.99 °W | Updated 28 minutes ago

Mostly Cloudy
Mostly Cloudy
66 °F
Feels Like 66 °F
N
6
Wind Variable Wind from ENE

Today
High -- | Low -- °F
--% Chance of Precip.
Yesterday
High -- | Low -- °F
Precip. -- in
7:12 AM 7:19 PM
Waning Crescent, 1% visible
Pressure 30.13 in
Visibility 8.0 miles
Clouds Overcast 10000 ft
Dew Point 63 °F
Humidity 90%
Rainfall 0.06 in
Snow Depth Not available.
UV 0 out of 12
Pollen 7.70 out of 12
Ozone Good
Flu Activity Not available.
METAR KCUB 230353Z AUTO 07005KT 8SM -RA OVC100 19/17 A3013 RMK AO2 RAB07 PRESFR SLP202 P0002 T01890172

More Conditions Fewer Conditions

Pressure 30.13 in
Visibility 8.0 miles
Clouds Overcast 10000 ft
Dew Point 63 °F
Humidity 90%
Rainfall 0.06 in
Snow Depth Not available.
UV 0 out of 12
Pollen 7.70 out of 12
Ozone Good
Flu Activity Not available.
METAR KCUB 230353Z AUTO 07005KT 8SM -RA OVC100 19/17 A3013 RMK AO2 RAB07 PRESFR SLP202 P0002 T01890172

More Conditions Fewer Conditions

10-Day Weather Forecast

Almanac

Astronomy

Sep. 23, 2014 Rise Set
Actual Time 7:12 AM EDT 7:19 PM EDT
Civil Twilight 6:47 AM EDT 7:44 PM EDT
Nautical Twilight 6:18 AM EDT 8:13 PM EDT
Astronomical Twilight 5:49 AM EDT 8:42 PM EDT
Moon 6:36 AM EDT 6:58 PM EDT
Length of Visible Light 12h 56m
Length of Day
12h 06m
Tomorrow will be 2m 6s shorter.
Waning Crescent, 1% of the Moon is Illuminated
Today
Waning Crescent
Sep 24
New
Oct 1
First Quarter
Oct 8
Full
Oct 15
Last Quarter

Yesterday's Extremes

State Highs State Lows

Community

WunderPhotos

Upload Photos

1,755,611 photos uploaded!

Nearby

Air Quality

  Air Quality AQ Index Pollutant
Yesterday Good
OZONE
Current Good
OZONE
Monday Good
OZONE
Tuesday Good
OZONE

Snow Depth

Station Depth Elevation
No new snow has been reported.

Earthquake Activity

City Distance Mag. Time & Date
New Ellenton, South Carolina 54 miles 2.6 4:38 PM EDT
2014-09-19
Minimum magnitude displayed is 2.5.

Coastal Water Temperatures

Place Temperature
No Stations Reporting

Nearby Weather Stations